sensor_id;sensor_type;location;lat;lon;timestamp;temperature;humidity
20672;DHT22;10495;50.922;4.760;2023-01-28T00:00:33;6.20;75.30
20672;DHT22;10495;50.922;4.760;2023-01-28T00:02:58;5.90;75.60
20672;DHT22;10495;50.922;4.760;2023-01-28T00:05:24;5.90;76.50
20672;DHT22;10495;50.922;4.760;2023-01-28T00:07:50;5.80;76.20
20672;DHT22;10495;50.922;4.760;2023-01-28T00:10:17;5.80;76.30
20672;DHT22;10495;50.922;4.760;2023-01-28T00:12:43;5.80;76.40
20672;DHT22;10495;50.922;4.760;2023-01-28T00:15:09;5.80;76.20
20672;DHT22;10495;50.922;4.760;2023-01-28T00:17:35;5.90;75.80
20672;DHT22;10495;50.922;4.760;2023-01-28T00:20:04;5.80;75.90
20672;DHT22;10495;50.922;4.760;2023-01-28T00:22:31;5.80;75.30
20672;DHT22;10495;50.922;4.760;2023-01-28T00:24:56;5.80;75.30
20672;DHT22;10495;50.922;4.760;2023-01-28T00:27:22;5.70;75.80
20672;DHT22;10495;50.922;4.760;2023-01-28T00:29:48;5.80;75.10
20672;DHT22;10495;50.922;4.760;2023-01-28T00:32:13;5.70;75.80
20672;DHT22;10495;50.922;4.760;2023-01-28T00:34:39;5.80;75.60
20672;DHT22;10495;50.922;4.760;2023-01-28T00:37:05;5.80;75.50
20672;DHT22;10495;50.922;4.760;2023-01-28T00:39:30;5.80;75.40
20672;DHT22;10495;50.922;4.760;2023-01-28T00:41:56;6.00;75.00
20672;DHT22;10495;50.922;4.760;2023-01-28T00:44:22;5.80;75.60
20672;DHT22;10495;50.922;4.760;2023-01-28T00:46:48;6.00;74.60
20672;DHT22;10495;50.922;4.760;2023-01-28T00:49:13;6.00;74.50
20672;DHT22;10495;50.922;4.760;2023-01-28T00:51:39;5.90;74.50
20672;DHT22;10495;50.922;4.760;2023-01-28T00:54:05;6.00;74.60
20672;DHT22;10495;50.922;4.760;2023-01-28T00:56:30;5.90;74.90
20672;DHT22;10495;50.922;4.760;2023-01-28T00:58:56;5.90;74.80
20672;DHT22;10495;50.922;4.760;2023-01-28T01:01:24;5.90;75.40
20672;DHT22;10495;50.922;4.760;2023-01-28T01:03:51;5.90;75.20
20672;DHT22;10495;50.922;4.760;2023-01-28T01:06:23;5.70;76.20
20672;DHT22;10495;50.922;4.760;2023-01-28T01:08:49;5.80;76.10
20672;DHT22;10495;50.922;4.760;2023-01-28T01:11:16;5.80;75.70
20672;DHT22;10495;50.922;4.760;2023-01-28T01:13:42;5.80;76.20
20672;DHT22;10495;50.922;4.760;2023-01-28T01:16:09;5.80;76.60
20672;DHT22;10495;50.922;4.760;2023-01-28T01:18:35;6.00;75.40
20672;DHT22;10495;50.922;4.760;2023-01-28T01:21:02;5.90;75.90
20672;DHT22;10495;50.922;4.760;2023-01-28T01:23:31;5.80;76.20
20672;DHT22;10495;50.922;4.760;2023-01-28T01:25:57;5.70;76.50
20672;DHT22;10495;50.922;4.760;2023-01-28T01:28:23;5.60;76.80
20672;DHT22;10495;50.922;4.760;2023-01-28T01:30:49;5.60;77.00
20672;DHT22;10495;50.922;4.760;2023-01-28T01:33:15;5.70;76.50
20672;DHT22;10495;50.922;4.760;2023-01-28T01:35:41;5.70;76.50
20672;DHT22;10495;50.922;4.760;2023-01-28T01:38:07;5.70;76.00
20672;DHT22;10495;50.922;4.760;2023-01-28T01:40:33;5.70;76.00
20672;DHT22;10495;50.922;4.760;2023-01-28T01:42:58;5.70;76.00
20672;DHT22;10495;50.922;4.760;2023-01-28T01:45:25;5.90;75.60
20672;DHT22;10495;50.922;4.760;2023-01-28T01:52:57;5.60;75.90
20672;DHT22;10495;50.922;4.760;2023-01-28T01:55:26;5.50;76.30
20672;DHT22;10495;50.922;4.760;2023-01-28T01:57:55;5.60;75.90
20672;DHT22;10495;50.922;4.760;2023-01-28T02:00:22;5.90;75.10
20672;DHT22;10495;50.922;4.760;2023-01-28T02:02:50;5.80;75.40
20672;DHT22;10495;50.922;4.760;2023-01-28T02:05:19;5.60;76.40
20672;DHT22;10495;50.922;4.760;2023-01-28T02:07:47;5.50;77.10
20672;DHT22;10495;50.922;4.760;2023-01-28T02:10:13;5.50;77.00
20672;DHT22;10495;50.922;4.760;2023-01-28T02:12:46;5.60;75.80
20672;DHT22;10495;50.922;4.760;2023-01-28T02:15:18;5.70;75.90
20672;DHT22;10495;50.922;4.760;2023-01-28T02:17:45;5.50;76.40
20672;DHT22;10495;50.922;4.760;2023-01-28T02:20:13;5.40;76.90
20672;DHT22;10495;50.922;4.760;2023-01-28T02:29:20;5.60;76.80
20672;DHT22;10495;50.922;4.760;2023-01-28T02:31:51;5.70;76.30
20672;DHT22;10495;50.922;4.760;2023-01-28T02:34:35;5.70;76.50
20672;DHT22;10495;50.922;4.760;2023-01-28T02:37:20;5.80;76.20
20672;DHT22;10495;50.922;4.760;2023-01-28T02:40:07;5.90;76.00
20672;DHT22;10495;50.922;4.760;2023-01-28T02:42:36;5.90;75.80
20672;DHT22;10495;50.922;4.760;2023-01-28T02:45:23;5.70;75.80
20672;DHT22;10495;50.922;4.760;2023-01-28T02:47:50;5.70;76.00
20672;DHT22;10495;50.922;4.760;2023-01-28T02:50:23;5.70;76.50
20672;DHT22;10495;50.922;4.760;2023-01-28T03:01:47;5.50;77.00
20672;DHT22;10495;50.922;4.760;2023-01-28T03:04:10;5.50;77.40
20672;DHT22;10495;50.922;4.760;2023-01-28T03:06:43;5.50;76.70
20672;DHT22;10495;50.922;4.760;2023-01-28T03:09:11;5.60;77.00
20672;DHT22;10495;50.922;4.760;2023-01-28T03:12:03;5.50;77.30
20672;DHT22;10495;50.922;4.760;2023-01-28T03:17:46;5.50;77.30
20672;DHT22;10495;50.922;4.760;2023-01-28T03:26:57;5.30;77.40
20672;DHT22;10495;50.922;4.760;2023-01-28T03:29:47;5.40;76.60
20672;DHT22;10495;50.922;4.760;2023-01-28T03:32:33;5.40;76.90
20672;DHT22;10495;50.922;4.760;2023-01-28T03:35:21;5.40;76.50
20672;DHT22;10495;50.922;4.760;2023-01-28T03:38:08;5.30;77.20
20672;DHT22;10495;50.922;4.760;2023-01-28T03:40:55;5.30;76.90
20672;DHT22;10495;50.922;4.760;2023-01-28T03:43:22;5.10;77.50
20672;DHT22;10495;50.922;4.760;2023-01-28T03:45:48;5.10;77.70
20672;DHT22;10495;50.922;4.760;2023-01-28T03:48:25;5.10;77.30
20672;DHT22;10495;50.922;4.760;2023-01-28T03:50:52;5.00;77.80
20672;DHT22;10495;50.922;4.760;2023-01-28T03:53:18;4.90;78.40
20672;DHT22;10495;50.922;4.760;2023-01-28T03:55:46;5.00;78.40
20672;DHT22;10495;50.922;4.760;2023-01-28T03:58:13;4.90;78.20
20672;DHT22;10495;50.922;4.760;2023-01-28T04:00:39;4.90;78.80
20672;DHT22;10495;50.922;4.760;2023-01-28T04:03:09;5.10;78.20
20672;DHT22;10495;50.922;4.760;2023-01-28T04:05:45;5.30;76.80
20672;DHT22;10495;50.922;4.760;2023-01-28T04:08:11;5.40;76.50
20672;DHT22;10495;50.922;4.760;2023-01-28T04:10:38;5.40;76.60
20672;DHT22;10495;50.922;4.760;2023-01-28T04:13:05;5.50;76.60
20672;DHT22;10495;50.922;4.760;2023-01-28T04:15:31;5.40;76.70
20672;DHT22;10495;50.922;4.760;2023-01-28T04:17:57;5.40;76.30
20672;DHT22;10495;50.922;4.760;2023-01-28T04:20:22;5.60;76.10
20672;DHT22;10495;50.922;4.760;2023-01-28T04:22:48;5.30;75.70
20672;DHT22;10495;50.922;4.760;2023-01-28T04:25:14;5.50;76.00
20672;DHT22;10495;50.922;4.760;2023-01-28T04:27:39;5.20;75.80
20672;DHT22;10495;50.922;4.760;2023-01-28T04:30:05;5.10;76.50
20672;DHT22;10495;50.922;4.760;2023-01-28T04:32:31;5.10;75.90
20672;DHT22;10495;50.922;4.760;2023-01-28T04:34:57;5.20;76.10
20672;DHT22;10495;50.922;4.760;2023-01-28T04:37:22;5.30;75.80
20672;DHT22;10495;50.922;4.760;2023-01-28T04:39:48;5.20;76.70
20672;DHT22;10495;50.922;4.760;2023-01-28T04:42:13;5.20;76.40
20672;DHT22;10495;50.922;4.760;2023-01-28T04:44:39;5.10;76.80
20672;DHT22;10495;50.922;4.760;2023-01-28T04:47:05;4.90;77.20
20672;DHT22;10495;50.922;4.760;2023-01-28T04:49:30;5.00;77.50
20672;DHT22;10495;50.922;4.760;2023-01-28T04:51:57;5.00;76.90
20672;DHT22;10495;50.922;4.760;2023-01-28T04:54:22;4.80;77.80
20672;DHT22;10495;50.922;4.760;2023-01-28T04:56:48;5.00;77.50
20672;DHT22;10495;50.922;4.760;2023-01-28T04:59:13;5.00;77.40
20672;DHT22;10495;50.922;4.760;2023-01-28T05:01:39;5.00;77.50
20672;DHT22;10495;50.922;4.760;2023-01-28T05:04:05;5.00;77.50
20672;DHT22;10495;50.922;4.760;2023-01-28T05:06:31;5.10;77.70
20672;DHT22;10495;50.922;4.760;2023-01-28T05:08:57;5.10;77.00
20672;DHT22;10495;50.922;4.760;2023-01-28T05:11:23;5.20;76.90
20672;DHT22;10495;50.922;4.760;2023-01-28T05:13:48;5.20;76.90
20672;DHT22;10495;50.922;4.760;2023-01-28T05:16:14;5.20;77.20
20672;DHT22;10495;50.922;4.760;2023-01-28T05:18:40;5.00;77.50
20672;DHT22;10495;50.922;4.760;2023-01-28T05:21:06;4.90;77.90
20672;DHT22;10495;50.922;4.760;2023-01-28T05:23:31;5.00;78.00
20672;DHT22;10495;50.922;4.760;2023-01-28T05:25:57;5.10;78.00
20672;DHT22;10495;50.922;4.760;2023-01-28T05:28:22;5.00;78.20
20672;DHT22;10495;50.922;4.760;2023-01-28T05:30:48;5.00;78.30
20672;DHT22;10495;50.922;4.760;2023-01-28T05:33:14;5.20;78.40
20672;DHT22;10495;50.922;4.760;2023-01-28T05:35:40;5.10;77.70
20672;DHT22;10495;50.922;4.760;2023-01-28T05:38:06;5.10;78.20
20672;DHT22;10495;50.922;4.760;2023-01-28T05:40:31;5.00;78.40
20672;DHT22;10495;50.922;4.760;2023-01-28T05:42:57;5.00;78.40
20672;DHT22;10495;50.922;4.760;2023-01-28T05:45:23;5.00;78.80
20672;DHT22;10495;50.922;4.760;2023-01-28T05:47:48;5.00;78.30
20672;DHT22;10495;50.922;4.760;2023-01-28T05:50:14;5.00;78.60
20672;DHT22;10495;50.922;4.760;2023-01-28T05:52:40;5.10;78.50
20672;DHT22;10495;50.922;4.760;2023-01-28T05:55:05;5.10;78.40
20672;DHT22;10495;50.922;4.760;2023-01-28T05:57:32;5.20;78.40
20672;DHT22;10495;50.922;4.760;2023-01-28T05:59:57;5.10;78.20
20672;DHT22;10495;50.922;4.760;2023-01-28T06:02:23;5.30;78.00
20672;DHT22;10495;50.922;4.760;2023-01-28T06:04:48;5.30;77.60
20672;DHT22;10495;50.922;4.760;2023-01-28T06:07:14;5.20;77.80
20672;DHT22;10495;50.922;4.760;2023-01-28T06:09:43;5.20;78.10
20672;DHT22;10495;50.922;4.760;2023-01-28T06:12:09;5.20;77.70
20672;DHT22;10495;50.922;4.760;2023-01-28T06:14:35;5.10;77.60
20672;DHT22;10495;50.922;4.760;2023-01-28T06:17:00;5.00;77.90
20672;DHT22;10495;50.922;4.760;2023-01-28T06:19:26;5.10;78.10
20672;DHT22;10495;50.922;4.760;2023-01-28T06:21:51;5.10;78.20
20672;DHT22;10495;50.922;4.760;2023-01-28T06:24:17;5.00;78.10
20672;DHT22;10495;50.922;4.760;2023-01-28T06:26:42;5.00;77.90
20672;DHT22;10495;50.922;4.760;2023-01-28T06:29:08;4.90;77.60
20672;DHT22;10495;50.922;4.760;2023-01-28T06:31:34;4.70;77.60
20672;DHT22;10495;50.922;4.760;2023-01-28T06:33:59;4.70;77.50
20672;DHT22;10495;50.922;4.760;2023-01-28T06:36:25;4.80;77.90
20672;DHT22;10495;50.922;4.760;2023-01-28T06:38:51;4.70;76.90
20672;DHT22;10495;50.922;4.760;2023-01-28T06:41:17;4.70;76.40
20672;DHT22;10495;50.922;4.760;2023-01-28T06:43:42;4.60;76.40
20672;DHT22;10495;50.922;4.760;2023-01-28T06:46:08;4.70;76.10
20672;DHT22;10495;50.922;4.760;2023-01-28T06:48:34;4.70;76.00
20672;DHT22;10495;50.922;4.760;2023-01-28T06:50:59;4.50;75.30
20672;DHT22;10495;50.922;4.760;2023-01-28T06:53:25;4.50;75.30
20672;DHT22;10495;50.922;4.760;2023-01-28T06:55:50;4.50;75.40
20672;DHT22;10495;50.922;4.760;2023-01-28T06:58:16;4.60;75.80
20672;DHT22;10495;50.922;4.760;2023-01-28T07:00:42;4.80;75.40
20672;DHT22;10495;50.922;4.760;2023-01-28T07:03:07;4.60;75.40
20672;DHT22;10495;50.922;4.760;2023-01-28T07:05:33;4.70;75.20
20672;DHT22;10495;50.922;4.760;2023-01-28T07:07:59;4.50;74.90
20672;DHT22;10495;50.922;4.760;2023-01-28T07:10:26;4.60;75.60
20672;DHT22;10495;50.922;4.760;2023-01-28T07:12:52;4.60;75.00
20672;DHT22;10495;50.922;4.760;2023-01-28T07:15:17;4.50;74.90
20672;DHT22;10495;50.922;4.760;2023-01-28T07:17:44;4.70;74.20
20672;DHT22;10495;50.922;4.760;2023-01-28T07:20:12;4.60;73.70
20672;DHT22;10495;50.922;4.760;2023-01-28T07:22:43;4.40;74.40
20672;DHT22;10495;50.922;4.760;2023-01-28T07:25:09;4.50;74.70
20672;DHT22;10495;50.922;4.760;2023-01-28T07:27:35;4.40;74.50
20672;DHT22;10495;50.922;4.760;2023-01-28T07:30:01;4.50;74.70
20672;DHT22;10495;50.922;4.760;2023-01-28T07:32:27;4.40;74.90
20672;DHT22;10495;50.922;4.760;2023-01-28T07:34:53;4.50;74.60
20672;DHT22;10495;50.922;4.760;2023-01-28T07:37:19;4.20;74.20
20672;DHT22;10495;50.922;4.760;2023-01-28T07:39:45;4.10;74.40
20672;DHT22;10495;50.922;4.760;2023-01-28T07:42:10;3.90;74.80
20672;DHT22;10495;50.922;4.760;2023-01-28T07:44:36;4.00;75.10
20672;DHT22;10495;50.922;4.760;2023-01-28T07:47:03;4.10;75.00
20672;DHT22;10495;50.922;4.760;2023-01-28T07:49:29;4.10;75.00
20672;DHT22;10495;50.922;4.760;2023-01-28T07:51:54;4.00;75.20
20672;DHT22;10495;50.922;4.760;2023-01-28T07:54:20;4.00;74.40
20672;DHT22;10495;50.922;4.760;2023-01-28T07:56:46;3.90;74.70
20672;DHT22;10495;50.922;4.760;2023-01-28T07:59:11;4.00;75.00
20672;DHT22;10495;50.922;4.760;2023-01-28T08:01:37;4.10;74.30
20672;DHT22;10495;50.922;4.760;2023-01-28T08:04:03;4.10;74.70
20672;DHT22;10495;50.922;4.760;2023-01-28T08:06:28;4.10;73.80
20672;DHT22;10495;50.922;4.760;2023-01-28T08:08:54;4.10;73.50
20672;DHT22;10495;50.922;4.760;2023-01-28T08:11:20;4.20;72.70
20672;DHT22;10495;50.922;4.760;2023-01-28T08:13:47;4.10;72.20
20672;DHT22;10495;50.922;4.760;2023-01-28T08:16:13;3.90;72.90
20672;DHT22;10495;50.922;4.760;2023-01-28T08:18:38;4.00;72.70
20672;DHT22;10495;50.922;4.760;2023-01-28T08:21:04;4.10;71.90
20672;DHT22;10495;50.922;4.760;2023-01-28T08:23:30;4.20;71.60
20672;DHT22;10495;50.922;4.760;2023-01-28T08:25:58;4.40;71.60
20672;DHT22;10495;50.922;4.760;2023-01-28T08:28:24;4.40;71.90
20672;DHT22;10495;50.922;4.760;2023-01-28T08:30:50;4.40;71.70
20672;DHT22;10495;50.922;4.760;2023-01-28T08:33:17;4.30;71.80
20672;DHT22;10495;50.922;4.760;2023-01-28T08:35:43;4.30;72.00
20672;DHT22;10495;50.922;4.760;2023-01-28T08:38:10;4.50;71.50
20672;DHT22;10495;50.922;4.760;2023-01-28T08:40:37;4.40;71.70
20672;DHT22;10495;50.922;4.760;2023-01-28T08:43:03;4.50;72.80
20672;DHT22;10495;50.922;4.760;2023-01-28T08:45:30;4.60;72.90
20672;DHT22;10495;50.922;4.760;2023-01-28T08:48:00;4.50;72.40
20672;DHT22;10495;50.922;4.760;2023-01-28T08:50:28;4.50;72.80
20672;DHT22;10495;50.922;4.760;2023-01-28T08:52:56;4.50;72.90
20672;DHT22;10495;50.922;4.760;2023-01-28T08:55:23;4.60;72.90
20672;DHT22;10495;50.922;4.760;2023-01-28T08:57:49;4.60;72.70
20672;DHT22;10495;50.922;4.760;2023-01-28T09:00:14;4.70;72.50
20672;DHT22;10495;50.922;4.760;2023-01-28T09:02:40;4.70;72.30
20672;DHT22;10495;50.922;4.760;2023-01-28T09:05:06;4.80;72.70
20672;DHT22;10495;50.922;4.760;2023-01-28T09:07:37;4.60;72.80
20672;DHT22;10495;50.922;4.760;2023-01-28T09:10:04;4.50;73.00
20672;DHT22;10495;50.922;4.760;2023-01-28T09:12:30;4.60;73.40
20672;DHT22;10495;50.922;4.760;2023-01-28T09:14:56;4.50;73.40
20672;DHT22;10495;50.922;4.760;2023-01-28T09:17:22;4.40;73.00
20672;DHT22;10495;50.922;4.760;2023-01-28T09:19:48;4.40;72.60
20672;DHT22;10495;50.922;4.760;2023-01-28T09:22:15;4.30;72.00
20672;DHT22;10495;50.922;4.760;2023-01-28T09:24:41;4.30;72.40
20672;DHT22;10495;50.922;4.760;2023-01-28T09:27:07;4.50;72.30
20672;DHT22;10495;50.922;4.760;2023-01-28T09:29:33;4.60;71.90
20672;DHT22;10495;50.922;4.760;2023-01-28T09:31:59;4.60;71.80
20672;DHT22;10495;50.922;4.760;2023-01-28T09:34:24;4.60;71.10
20672;DHT22;10495;50.922;4.760;2023-01-28T09:36:50;4.60;70.90
20672;DHT22;10495;50.922;4.760;2023-01-28T09:39:16;4.50;71.20
20672;DHT22;10495;50.922;4.760;2023-01-28T09:42:08;4.60;71.40
20672;DHT22;10495;50.922;4.760;2023-01-28T09:47:27;4.70;71.80
20672;DHT22;10495;50.922;4.760;2023-01-28T09:49:59;4.80;71.20
20672;DHT22;10495;50.922;4.760;2023-01-28T09:52:26;4.90;71.60
20672;DHT22;10495;50.922;4.760;2023-01-28T09:55:09;4.90;71.30
20672;DHT22;10495;50.922;4.760;2023-01-28T09:57:45;4.80;70.40
20672;DHT22;10495;50.922;4.760;2023-01-28T10:00:20;4.70;69.50
20672;DHT22;10495;50.922;4.760;2023-01-28T10:04:12;4.70;69.60
20672;DHT22;10495;50.922;4.760;2023-01-28T10:06:24;4.60;70.40
20672;DHT22;10495;50.922;4.760;2023-01-28T10:17:15;4.80;69.60
20672;DHT22;10495;50.922;4.760;2023-01-28T10:19:52;4.60;70.30
20672;DHT22;10495;50.922;4.760;2023-01-28T10:22:29;4.60;70.20
20672;DHT22;10495;50.922;4.760;2023-01-28T10:24:59;4.70;69.70
20672;DHT22;10495;50.922;4.760;2023-01-28T10:27:31;4.80;69.20
20672;DHT22;10495;50.922;4.760;2023-01-28T10:29:59;4.60;69.40
20672;DHT22;10495;50.922;4.760;2023-01-28T10:32:37;4.80;68.00
20672;DHT22;10495;50.922;4.760;2023-01-28T10:35:06;4.60;67.90
20672;DHT22;10495;50.922;4.760;2023-01-28T10:37:36;4.60;68.30
20672;DHT22;10495;50.922;4.760;2023-01-28T10:40:03;4.60;68.90
20672;DHT22;10495;50.922;4.760;2023-01-28T10:42:31;4.80;68.20
20672;DHT22;10495;50.922;4.760;2023-01-28T10:45:14;4.90;67.60
20672;DHT22;10495;50.922;4.760;2023-01-28T10:47:45;4.90;67.60
20672;DHT22;10495;50.922;4.760;2023-01-28T10:50:20;5.00;67.80
20672;DHT22;10495;50.922;4.760;2023-01-28T10:52:57;5.00;67.60
20672;DHT22;10495;50.922;4.760;2023-01-28T10:55:26;5.10;66.80
20672;DHT22;10495;50.922;4.760;2023-01-28T10:57:54;5.00;66.70
20672;DHT22;10495;50.922;4.760;2023-01-28T11:00:33;5.00;66.90
20672;DHT22;10495;50.922;4.760;2023-01-28T11:03:00;4.90;67.50
20672;DHT22;10495;50.922;4.760;2023-01-28T11:05:29;5.00;66.80
20672;DHT22;10495;50.922;4.760;2023-01-28T11:08:14;4.90;66.80
20672;DHT22;10495;50.922;4.760;2023-01-28T11:10:41;4.80;68.50
20672;DHT22;10495;50.922;4.760;2023-01-28T11:13:22;4.80;68.80
20672;DHT22;10495;50.922;4.760;2023-01-28T11:15:53;4.80;67.80
20672;DHT22;10495;50.922;4.760;2023-01-28T11:19:01;4.90;67.20
20672;DHT22;10495;50.922;4.760;2023-01-28T11:21:31;4.90;67.20
20672;DHT22;10495;50.922;4.760;2023-01-28T11:24:03;4.90;68.20
20672;DHT22;10495;50.922;4.760;2023-01-28T11:26:35;5.10;67.30
20672;DHT22;10495;50.922;4.760;2023-01-28T11:29:03;5.00;67.00
20672;DHT22;10495;50.922;4.760;2023-01-28T11:31:38;4.80;67.00
20672;DHT22;10495;50.922;4.760;2023-01-28T11:34:14;4.80;67.70
20672;DHT22;10495;50.922;4.760;2023-01-28T11:36:49;4.80;66.40
20672;DHT22;10495;50.922;4.760;2023-01-28T11:39:23;4.60;67.20
20672;DHT22;10495;50.922;4.760;2023-01-28T11:41:50;4.50;67.70
20672;DHT22;10495;50.922;4.760;2023-01-28T11:44:21;4.40;67.00
20672;DHT22;10495;50.922;4.760;2023-01-28T11:47:11;4.70;67.00
20672;DHT22;10495;50.922;4.760;2023-01-28T11:52:40;4.70;67.20
20672;DHT22;10495;50.922;4.760;2023-01-28T11:58:21;5.00;66.70
20672;DHT22;10495;50.922;4.760;2023-01-28T12:03:40;5.00;67.00
20672;DHT22;10495;50.922;4.760;2023-01-28T12:09:05;4.90;67.80
20672;DHT22;10495;50.922;4.760;2023-01-28T12:20:37;5.10;67.60
20672;DHT22;10495;50.922;4.760;2023-01-28T12:26:10;5.40;65.80
20672;DHT22;10495;50.922;4.760;2023-01-28T12:37:21;5.30;66.80
20672;DHT22;10495;50.922;4.760;2023-01-28T12:47:55;5.50;66.70
20672;DHT22;10495;50.922;4.760;2023-01-28T12:50:36;5.90;64.70
20672;DHT22;10495;50.922;4.760;2023-01-28T12:53:18;5.80;64.40
20672;DHT22;10495;50.922;4.760;2023-01-28T12:56:03;6.00;63.70
20672;DHT22;10495;50.922;4.760;2023-01-28T12:58:39;5.80;63.50
20672;DHT22;10495;50.922;4.760;2023-01-28T13:01:12;5.80;63.70
20672;DHT22;10495;50.922;4.760;2023-01-28T13:06:57;5.90;64.50
20672;DHT22;10495;50.922;4.760;2023-01-28T13:09:24;5.80;64.30
20672;DHT22;10495;50.922;4.760;2023-01-28T13:11:53;5.60;64.60
20672;DHT22;10495;50.922;4.760;2023-01-28T13:14:24;5.60;65.90
20672;DHT22;10495;50.922;4.760;2023-01-28T13:16:51;5.50;65.60
20672;DHT22;10495;50.922;4.760;2023-01-28T13:21:42;5.60;65.10
20672;DHT22;10495;50.922;4.760;2023-01-28T13:31:45;5.50;64.90
20672;DHT22;10495;50.922;4.760;2023-01-28T13:34:35;5.50;65.20
20672;DHT22;10495;50.922;4.760;2023-01-28T13:37:29;5.50;65.40
20672;DHT22;10495;50.922;4.760;2023-01-28T13:40:01;5.40;65.20
20672;DHT22;10495;50.922;4.760;2023-01-28T13:42:28;5.20;65.30
20672;DHT22;10495;50.922;4.760;2023-01-28T13:44:55;5.10;66.10
20672;DHT22;10495;50.922;4.760;2023-01-28T13:47:33;5.20;66.10
20672;DHT22;10495;50.922;4.760;2023-01-28T13:50:23;5.10;65.20
20672;DHT22;10495;50.922;4.760;2023-01-28T13:53:03;5.10;66.00
20672;DHT22;10495;50.922;4.760;2023-01-28T13:55:35;5.30;65.80
20672;DHT22;10495;50.922;4.760;2023-01-28T14:10:02;5.40;66.10
20672;DHT22;10495;50.922;4.760;2023-01-28T14:19:47;5.50;65.50
20672;DHT22;10495;50.922;4.760;2023-01-28T14:22:17;5.60;65.10
20672;DHT22;10495;50.922;4.760;2023-01-28T14:24:44;5.50;65.20
20672;DHT22;10495;50.922;4.760;2023-01-28T14:27:34;5.40;65.70
20672;DHT22;10495;50.922;4.760;2023-01-28T14:30:24;5.30;65.10
20672;DHT22;10495;50.922;4.760;2023-01-28T14:32:54;5.20;65.20
20672;DHT22;10495;50.922;4.760;2023-01-28T14:35:33;5.30;65.80
20672;DHT22;10495;50.922;4.760;2023-01-28T14:38:06;5.40;66.10
20672;DHT22;10495;50.922;4.760;2023-01-28T14:40:36;5.50;66.40
20672;DHT22;10495;50.922;4.760;2023-01-28T14:43:05;5.60;66.30
20672;DHT22;10495;50.922;4.760;2023-01-28T14:54:36;6.00;63.90
20672;DHT22;10495;50.922;4.760;2023-01-28T14:59:42;5.60;64.50
20672;DHT22;10495;50.922;4.760;2023-01-28T15:02:16;5.50;65.20
20672;DHT22;10495;50.922;4.760;2023-01-28T15:04:43;5.50;65.70
20672;DHT22;10495;50.922;4.760;2023-01-28T15:07:23;5.50;65.60
20672;DHT22;10495;50.922;4.760;2023-01-28T15:10:04;5.50;65.70
20672;DHT22;10495;50.922;4.760;2023-01-28T15:12:34;5.40;66.00
20672;DHT22;10495;50.922;4.760;2023-01-28T15:18:02;5.40;66.30
20672;DHT22;10495;50.922;4.760;2023-01-28T15:20:29;5.40;66.30
20672;DHT22;10495;50.922;4.760;2023-01-28T15:22:55;5.30;66.10
20672;DHT22;10495;50.922;4.760;2023-01-28T15:25:22;5.40;66.10
20672;DHT22;10495;50.922;4.760;2023-01-28T15:27:50;5.40;65.70
20672;DHT22;10495;50.922;4.760;2023-01-28T15:30:28;5.50;66.00
20672;DHT22;10495;50.922;4.760;2023-01-28T15:33:04;5.40;65.80
20672;DHT22;10495;50.922;4.760;2023-01-28T15:35:31;5.40;66.00
20672;DHT22;10495;50.922;4.760;2023-01-28T15:37:56;5.30;66.60
20672;DHT22;10495;50.922;4.760;2023-01-28T15:40:23;5.30;66.60
20672;DHT22;10495;50.922;4.760;2023-01-28T15:42:52;5.40;66.60
20672;DHT22;10495;50.922;4.760;2023-01-28T15:45:20;5.50;66.70
20672;DHT22;10495;50.922;4.760;2023-01-28T15:47:47;5.40;66.60
20672;DHT22;10495;50.922;4.760;2023-01-28T15:50:21;5.40;66.50
20672;DHT22;10495;50.922;4.760;2023-01-28T15:52:48;5.40;66.50
20672;DHT22;10495;50.922;4.760;2023-01-28T15:55:41;5.30;66.40
20672;DHT22;10495;50.922;4.760;2023-01-28T15:58:30;5.30;66.40
20672;DHT22;10495;50.922;4.760;2023-01-28T16:03:33;5.40;65.70
20672;DHT22;10495;50.922;4.760;2023-01-28T16:06:31;5.20;65.90
20672;DHT22;10495;50.922;4.760;2023-01-28T16:08:57;4.90;66.40
20672;DHT22;10495;50.922;4.760;2023-01-28T16:11:35;4.70;66.60
20672;DHT22;10495;50.922;4.760;2023-01-28T16:14:03;4.70;66.70
20672;DHT22;10495;50.922;4.760;2023-01-28T16:16:33;4.50;67.70
20672;DHT22;10495;50.922;4.760;2023-01-28T16:19:02;4.40;68.70
20672;DHT22;10495;50.922;4.760;2023-01-28T16:21:37;4.40;68.80
20672;DHT22;10495;50.922;4.760;2023-01-28T16:24:30;4.50;68.60
20672;DHT22;10495;50.922;4.760;2023-01-28T16:27:00;4.50;69.00
20672;DHT22;10495;50.922;4.760;2023-01-28T16:29:27;4.50;69.40
20672;DHT22;10495;50.922;4.760;2023-01-28T16:31:53;4.60;70.10
20672;DHT22;10495;50.922;4.760;2023-01-28T16:34:19;4.60;69.80
20672;DHT22;10495;50.922;4.760;2023-01-28T16:36:46;4.60;70.20
20672;DHT22;10495;50.922;4.760;2023-01-28T16:39:11;4.60;70.20
20672;DHT22;10495;50.922;4.760;2023-01-28T16:41:40;4.70;70.40
20672;DHT22;10495;50.922;4.760;2023-01-28T16:44:07;4.70;69.90
20672;DHT22;10495;50.922;4.760;2023-01-28T16:46:35;4.50;69.70
20672;DHT22;10495;50.922;4.760;2023-01-28T16:49:01;4.60;70.20
20672;DHT22;10495;50.922;4.760;2023-01-28T16:51:27;4.60;70.00
20672;DHT22;10495;50.922;4.760;2023-01-28T16:53:53;4.70;70.10
20672;DHT22;10495;50.922;4.760;2023-01-28T16:56:22;4.70;70.60
20672;DHT22;10495;50.922;4.760;2023-01-28T16:58:49;4.70;70.70
20672;DHT22;10495;50.922;4.760;2023-01-28T17:01:14;4.70;71.20
20672;DHT22;10495;50.922;4.760;2023-01-28T17:03:40;4.80;71.00
20672;DHT22;10495;50.922;4.760;2023-01-28T17:06:07;4.70;71.30
20672;DHT22;10495;50.922;4.760;2023-01-28T17:08:33;4.70;71.30
20672;DHT22;10495;50.922;4.760;2023-01-28T17:10:59;4.70;71.10
20672;DHT22;10495;50.922;4.760;2023-01-28T17:13:24;4.70;71.30
20672;DHT22;10495;50.922;4.760;2023-01-28T17:15:50;4.70;71.40
20672;DHT22;10495;50.922;4.760;2023-01-28T17:18:17;4.50;70.20
20672;DHT22;10495;50.922;4.760;2023-01-28T17:20:42;4.50;70.10
20672;DHT22;10495;50.922;4.760;2023-01-28T17:23:13;4.60;70.30
20672;DHT22;10495;50.922;4.760;2023-01-28T17:25:42;4.40;69.50
20672;DHT22;10495;50.922;4.760;2023-01-28T17:28:08;4.40;69.70
20672;DHT22;10495;50.922;4.760;2023-01-28T17:30:37;4.40;70.30
20672;DHT22;10495;50.922;4.760;2023-01-28T17:33:03;4.30;69.70
20672;DHT22;10495;50.922;4.760;2023-01-28T17:35:30;4.30;69.80
20672;DHT22;10495;50.922;4.760;2023-01-28T17:37:55;4.20;70.00
20672;DHT22;10495;50.922;4.760;2023-01-28T17:40:22;4.10;70.00
20672;DHT22;10495;50.922;4.760;2023-01-28T17:42:47;4.10;70.30
20672;DHT22;10495;50.922;4.760;2023-01-28T17:45:13;4.10;70.50
20672;DHT22;10495;50.922;4.760;2023-01-28T17:47:39;4.00;70.40
20672;DHT22;10495;50.922;4.760;2023-01-28T17:50:05;4.00;70.70
20672;DHT22;10495;50.922;4.760;2023-01-28T17:52:31;3.90;70.90
20672;DHT22;10495;50.922;4.760;2023-01-28T17:54:57;3.80;71.00
20672;DHT22;10495;50.922;4.760;2023-01-28T17:57:22;3.80;70.90
20672;DHT22;10495;50.922;4.760;2023-01-28T17:59:48;3.70;71.00
20672;DHT22;10495;50.922;4.760;2023-01-28T18:02:14;3.50;71.50
20672;DHT22;10495;50.922;4.760;2023-01-28T18:04:40;3.50;71.70
20672;DHT22;10495;50.922;4.760;2023-01-28T18:07:08;3.40;71.70
20672;DHT22;10495;50.922;4.760;2023-01-28T18:09:41;3.40;72.20